Time;durP1;ratioP1;P1;durP2;ratioP2;P2;SDS_P1;SDS_P2;PMS_P1;PMS_P2;Temp;Humidity;BMP_temperature;BMP_pressure;BME280_temperature;BME280_humidity;BME280_pressure;Samples;Min_cycle;Max_cycle;Signal;HPM_P1;HPM_P2
2022/08/01 00:00:14;;;;;;;24.80;9.77;;;;;;;;;;748831;184;630378;-88
2022/08/01 00:02:40;;;;;;;47.10;10.33;;;;;;;;;;750514;184;667758;-88
2022/08/01 00:05:06;;;;;;;33.87;11.50;;;;;;;;;;745530;184;683926;-89
2022/08/01 00:07:32;;;;;;;25.17;10.27;;;;;;;;;;747278;187;615613;-90
2022/08/01 00:09:57;;;;;;;22.00;9.60;;;;;;;;;;744702;184;654085;-89
2022/08/01 00:12:23;;;;;;;23.90;10.40;;;;;;;;;;747701;187;633486;-89
2022/08/01 00:14:49;;;;;;;50.23;11.77;;;;;;;;;;746939;189;626441;-88
2022/08/01 00:17:15;;;;;;;72.17;11.93;;;;;;;;;;743518;187;664823;-88
2022/08/01 00:19:41;;;;;;;20.80;8.80;;;;;;;;;;743568;186;632786;-88
2022/08/01 00:22:07;;;;;;;12.70;7.50;;;;;;;;;;746267;185;631980;-89
2022/08/01 00:24:33;;;;;;;15.33;7.50;;;;;;;;;;742044;187;625080;-89
2022/08/01 00:26:58;;;;;;;14.00;8.23;;;;;;;;;;741128;187;626205;-88
2022/08/01 00:29:24;;;;;;;25.60;8.80;;;;;;;;;;745429;186;621685;-88
2022/08/01 00:31:50;;;;;;;18.23;7.47;;;;;;;;;;749038;187;638097;-89
2022/08/01 00:34:16;;;;;;;12.50;7.00;;;;;;;;;;743099;187;638405;-89
2022/08/01 00:36:42;;;;;;;18.50;6.63;;;;;;;;;;745447;186;636263;-89
2022/08/01 00:39:08;;;;;;;20.60;7.27;;;;;;;;;;750006;187;618154;-89
2022/08/01 00:41:34;;;;;;;18.70;6.63;;;;;;;;;;742890;187;672100;-89
2022/08/01 00:43:59;;;;;;;16.87;7.33;;;;;;;;;;745637;185;654553;-89
2022/08/01 00:46:25;;;;;;;16.93;8.90;;;;;;;;;;748084;187;688255;-89
2022/08/01 00:48:51;;;;;;;17.70;7.00;;;;;;;;;;745057;187;668585;-89
2022/08/01 00:51:17;;;;;;;10.53;8.00;;;;;;;;;;744599;185;625143;-89
2022/08/01 00:53:43;;;;;;;13.70;7.00;;;;;;;;;;745086;186;638895;-89
2022/08/01 00:56:09;;;;;;;10.17;7.27;;;;;;;;;;744975;185;668346;-89
2022/08/01 00:58:34;;;;;;;14.63;6.73;;;;;;;;;;743175;185;634597;-90
2022/08/01 01:01:00;;;;;;;13.67;6.10;;;;;;;;;;745001;185;661131;-89
2022/08/01 01:03:26;;;;;;;21.23;8.00;;;;;;;;;;751208;187;656012;-90
2022/08/01 01:05:54;;;;;;;34.73;9.30;;;;;;;;;;747210;185;659635;-90
2022/08/01 01:08:20;;;;;;;14.63;7.20;;;;;;;;;;746083;188;637561;-91
2022/08/01 01:10:46;;;;;;;11.73;6.03;;;;;;;;;;749163;187;618366;-90
2022/08/01 01:13:13;;;;;;;11.67;7.87;;;;;;;;;;746389;184;637595;-90
2022/08/01 01:15:42;;;;;;;13.10;6.53;;;;;;;;;;748963;184;677861;-90
2022/08/01 01:18:07;;;;;;;22.70;6.83;;;;;;;;;;744985;185;678506;-90
2022/08/01 01:20:34;;;;;;;17.80;7.00;;;;;;;;;;746852;187;632056;-89
2022/08/01 01:23:00;;;;;;;16.93;6.60;;;;;;;;;;743485;183;651037;-89
2022/08/01 01:25:32;;;;;;;39.67;7.80;;;;;;;;;;743044;183;652799;-89
2022/08/01 01:28:00;;;;;;;24.80;6.83;;;;;;;;;;746774;185;680681;-88
2022/08/01 01:30:23;;;;;;;26.40;7.60;;;;;;;;;;751001;186;615187;-90
2022/08/01 01:32:49;;;;;;;35.63;7.43;;;;;;;;;;741145;188;630261;-88
2022/08/01 01:35:16;;;;;;;56.80;8.60;;;;;;;;;;745403;184;650919;-90
2022/08/01 01:37:42;;;;;;;40.30;9.17;;;;;;;;;;745174;187;626134;-88
2022/08/01 01:40:08;;;;;;;20.80;7.70;;;;;;;;;;741700;187;624263;-88
2022/08/01 01:42:34;;;;;;;17.77;7.90;;;;;;;;;;746534;186;653655;-90
2022/08/01 01:45:00;;;;;;;60.20;11.37;;;;;;;;;;746118;187;667250;-90
2022/08/01 01:47:26;;;;;;;76.80;10.73;;;;;;;;;;742272;187;633827;-90
2022/08/01 01:49:51;;;;;;;61.13;10.07;;;;;;;;;;746864;184;643747;-90
2022/08/01 01:52:17;;;;;;;31.53;9.27;;;;;;;;;;746364;185;668618;-89
2022/08/01 01:54:43;;;;;;;49.30;10.90;;;;;;;;;;739802;187;622427;-91
2022/08/01 01:57:09;;;;;;;44.97;9.20;;;;;;;;;;742759;187;644280;-91
2022/08/01 01:59:35;;;;;;;35.47;8.30;;;;;;;;;;746702;186;632899;-91
2022/08/01 02:02:01;;;;;;;44.47;8.37;;;;;;;;;;751941;185;622459;-91
2022/08/01 02:04:27;;;;;;;18.97;6.20;;;;;;;;;;749037;184;673668;-90
2022/08/01 02:06:52;;;;;;;28.83;7.30;;;;;;;;;;748096;184;624570;-91
2022/08/01 02:09:19;;;;;;;23.90;6.57;;;;;;;;;;751885;187;627707;-91
2022/08/01 02:11:44;;;;;;;12.60;6.17;;;;;;;;;;740676;187;635044;-91
2022/08/01 02:14:10;;;;;;;29.00;7.17;;;;;;;;;;746030;187;667179;-91
2022/08/01 02:16:36;;;;;;;14.30;6.20;;;;;;;;;;746841;186;634898;-91
2022/08/01 02:19:02;;;;;;;29.67;8.23;;;;;;;;;;744318;186;724083;-91
2022/08/01 02:21:30;;;;;;;35.57;8.47;;;;;;;;;;742730;186;642988;-92
2022/08/01 02:23:55;;;;;;;15.73;6.00;;;;;;;;;;742315;187;626680;-91
2022/08/01 02:26:21;;;;;;;16.20;5.40;;;;;;;;;;750121;184;638814;-92
2022/08/01 02:28:49;;;;;;;12.10;6.27;;;;;;;;;;747568;187;625487;-91
2022/08/01 02:31:15;;;;;;;8.80;5.20;;;;;;;;;;745139;181;633702;-89
2022/08/01 02:33:41;;;;;;;30.07;7.00;;;;;;;;;;741512;188;634024;-89
2022/08/01 02:36:07;;;;;;;19.10;6.80;;;;;;;;;;738482;191;646561;-90
2022/08/01 02:38:32;;;;;;;11.37;5.70;;;;;;;;;;736370;191;629808;-90
2022/08/01 02:40:58;;;;;;;13.50;5.60;;;;;;;;;;755125;179;652087;-89
2022/08/01 02:43:24;;;;;;;8.67;6.20;;;;;;;;;;781472;180;680208;-90
2022/08/01 02:45:50;;;;;;;15.63;5.73;;;;;;;;;;769623;180;638825;-90
2022/08/01 02:48:16;;;;;;;7.57;5.00;;;;;;;;;;759651;180;636985;-89
2022/08/01 02:50:42;;;;;;;12.87;6.40;;;;;;;;;;752984;185;633416;-90
2022/08/01 02:53:10;;;;;;;20.90;5.63;;;;;;;;;;756376;184;629870;-90
2022/08/01 02:55:34;;;;;;;13.40;5.40;;;;;;;;;;755653;184;670970;-89
2022/08/01 02:58:00;;;;;;;19.67;6.53;;;;;;;;;;761133;184;634564;-90
2022/08/01 03:00:26;;;;;;;16.07;5.60;;;;;;;;;;758177;181;656231;-89
2022/08/01 03:02:54;;;;;;;11.27;5.60;;;;;;;;;;756910;185;651215;-90
2022/08/01 03:13:57;;;;;;;14.63;6.40;;;;;;;;;;747870;189;26977;-87
2022/08/01 03:16:24;;;;;;;11.30;6.50;;;;;;;;;;737703;191;631618;-86
2022/08/01 03:18:49;;;;;;;12.57;5.77;;;;;;;;;;765043;176;646575;-85
2022/08/01 03:21:15;;;;;;;14.93;7.50;;;;;;;;;;792013;176;657280;-86
2022/08/01 03:23:41;;;;;;;24.97;7.93;;;;;;;;;;782862;177;635793;-86
2022/08/01 03:26:07;;;;;;;8.73;6.77;;;;;;;;;;783346;177;627864;-86
2022/08/01 03:28:33;;;;;;;16.67;7.43;;;;;;;;;;787794;177;626209;-86
2022/08/01 03:30:59;;;;;;;18.03;7.43;;;;;;;;;;779369;176;658937;-86
2022/08/01 03:33:25;;;;;;;17.63;6.80;;;;;;;;;;794904;176;623241;-86
2022/08/01 03:35:51;;;;;;;14.70;6.60;;;;;;;;;;777265;179;654616;-86
2022/08/01 03:38:17;;;;;;;19.20;7.67;;;;;;;;;;787991;176;624852;-86
2022/08/01 03:40:44;;;;;;;17.30;8.00;;;;;;;;;;777140;180;671071;-85
2022/08/01 03:43:11;;;;;;;31.43;8.53;;;;;;;;;;774781;180;613838;-85
2022/08/01 03:45:38;;;;;;;27.60;9.87;;;;;;;;;;786266;176;624739;-86
2022/08/01 03:48:03;;;;;;;11.77;8.60;;;;;;;;;;781993;176;667062;-86
2022/08/01 03:50:30;;;;;;;19.03;8.07;;;;;;;;;;782856;179;634404;-85
2022/08/01 03:52:55;;;;;;;15.30;8.80;;;;;;;;;;791347;176;620762;-86
2022/08/01 03:55:21;;;;;;;17.70;9.50;;;;;;;;;;771478;179;638021;-85
2022/08/01 03:57:47;;;;;;;10.10;8.90;;;;;;;;;;785784;177;623817;-85
2022/08/01 04:00:13;;;;;;;13.60;9.13;;;;;;;;;;784238;177;633569;-86
2022/08/01 04:02:39;;;;;;;13.17;9.90;;;;;;;;;;784748;177;631639;-85
2022/08/01 04:05:05;;;;;;;14.67;9.60;;;;;;;;;;784817;177;638749;-86
2022/08/01 04:07:31;;;;;;;12.90;10.60;;;;;;;;;;781942;177;660098;-86
2022/08/01 04:09:57;;;;;;;13.20;10.43;;;;;;;;;;783120;177;633174;-86
2022/08/01 04:12:22;;;;;;;13.20;10.30;;;;;;;;;;783689;177;632530;-86
2022/08/01 04:14:48;;;;;;;13.00;8.90;;;;;;;;;;787144;179;625508;-86
2022/08/01 04:17:14;;;;;;;10.90;9.50;;;;;;;;;;785112;177;632224;-87
2022/08/01 04:19:40;;;;;;;13.10;10.97;;;;;;;;;;785154;177;699466;-86
2022/08/01 04:22:06;;;;;;;12.93;10.70;;;;;;;;;;787086;177;644457;-86
2022/08/01 04:24:32;;;;;;;13.40;11.70;;;;;;;;;;783342;177;645217;-87
2022/08/01 04:26:58;;;;;;;15.03;12.20;;;;;;;;;;782414;177;642413;-86
2022/08/01 04:29:24;;;;;;;11.50;10.30;;;;;;;;;;784829;177;628312;-87
2022/08/01 04:31:49;;;;;;;13.87;11.50;;;;;;;;;;791837;176;634594;-87
2022/08/01 04:34:15;;;;;;;18.40;11.50;;;;;;;;;;773858;179;643141;-87
2022/08/01 04:36:42;;;;;;;11.37;10.27;;;;;;;;;;780584;177;688714;-87
2022/08/01 04:39:08;;;;;;;11.80;10.60;;;;;;;;;;785671;178;632439;-86
2022/08/01 04:41:33;;;;;;;12.17;10.87;;;;;;;;;;778154;178;661980;-87
2022/08/01 04:43:59;;;;;;;12.87;11.57;;;;;;;;;;775226;175;663659;-55
2022/08/01 04:46:25;;;;;;;14.17;12.17;;;;;;;;;;774940;179;618596;-56
2022/08/01 04:48:51;;;;;;;13.17;11.57;;;;;;;;;;762033;183;619223;-56
2022/08/01 04:51:30;;;;;;;13.77;12.03;;;;;;;;;;768378;183;619235;-56
2022/08/01 04:53:57;;;;;;;21.40;13.63;;;;;;;;;;756605;185;636133;-89
2022/08/01 04:56:22;;;;;;;15.03;12.43;;;;;;;;;;748852;186;617940;-89
2022/08/01 04:58:47;;;;;;;15.23;12.40;;;;;;;;;;752138;186;667864;-88
2022/08/01 05:01:13;;;;;;;13.10;11.60;;;;;;;;;;749932;186;635832;-89
2022/08/01 05:03:39;;;;;;;16.07;12.53;;;;;;;;;;759157;183;925985;-89
2022/08/01 05:06:05;;;;;;;14.10;12.10;;;;;;;;;;760819;182;633646;-88
2022/08/01 05:08:31;;;;;;;12.67;11.37;;;;;;;;;;739943;187;658410;-88
2022/08/01 05:10:57;;;;;;;14.73;13.10;;;;;;;;;;734673;189;638278;-89
2022/08/01 05:13:23;;;;;;;18.60;12.90;;;;;;;;;;740826;190;669360;-89
2022/08/01 05:15:50;;;;;;;15.00;13.10;;;;;;;;;;736858;190;668714;-89
2022/08/01 05:18:16;;;;;;;16.70;13.00;;;;;;;;;;745951;186;664722;-89
2022/08/01 05:20:41;;;;;;;14.97;13.37;;;;;;;;;;755840;186;689310;-89
2022/08/01 05:23:07;;;;;;;14.97;13.37;;;;;;;;;;748641;186;681621;-88
2022/08/01 05:25:33;;;;;;;14.90;13.40;;;;;;;;;;750044;186;745653;-89
2022/08/01 05:27:59;;;;;;;13.73;12.30;;;;;;;;;;749355;187;667592;-89
2022/08/01 05:30:25;;;;;;;15.50;13.87;;;;;;;;;;736933;189;627554;-89
2022/08/01 05:32:51;;;;;;;15.47;13.83;;;;;;;;;;744827;186;666710;-89
2022/08/01 05:35:16;;;;;;;14.70;13.00;;;;;;;;;;758634;183;682226;-89
2022/08/01 05:37:42;;;;;;;13.70;12.00;;;;;;;;;;757610;183;679572;-89
2022/08/01 05:40:09;;;;;;;20.00;13.03;;;;;;;;;;752562;186;653734;-90
2022/08/01 05:42:35;;;;;;;15.70;14.10;;;;;;;;;;751325;186;625849;-90
2022/08/01 05:45:01;;;;;;;13.17;11.77;;;;;;;;;;752232;186;696328;-90
2022/08/01 05:47:26;;;;;;;14.97;13.33;;;;;;;;;;748385;186;637828;-91
2022/08/01 05:49:52;;;;;;;15.90;12.10;;;;;;;;;;751944;186;654530;-90
2022/08/01 05:52:18;;;;;;;15.53;13.27;;;;;;;;;;751440;184;642966;-90
2022/08/01 05:54:44;;;;;;;14.80;13.30;;;;;;;;;;756349;182;698002;-91
2022/08/01 05:57:10;;;;;;;14.67;12.10;;;;;;;;;;760497;182;699743;-93
2022/08/01 05:59:36;;;;;;;14.53;13.00;;;;;;;;;;751788;186;633961;-91
2022/08/01 06:02:02;;;;;;;14.13;12.53;;;;;;;;;;757618;186;676757;-92
2022/08/01 06:04:28;;;;;;;14.90;12.37;;;;;;;;;;750661;186;762718;-93
2022/08/01 06:06:53;;;;;;;12.80;11.50;;;;;;;;;;753240;186;639736;-93
2022/08/01 06:09:19;;;;;;;17.70;12.67;;;;;;;;;;760014;187;651189;-94
2022/08/01 06:11:45;;;;;;;16.73;14.73;;;;;;;;;;754653;187;661880;-93
2022/08/01 06:14:11;;;;;;;24.50;15.90;;;;;;;;;;754232;187;665738;-93
2022/08/01 06:16:37;;;;;;;16.17;14.47;;;;;;;;;;753784;186;639113;-92
2022/08/01 06:19:03;;;;;;;14.17;12.87;;;;;;;;;;740157;187;646889;-91
2022/08/01 06:21:29;;;;;;;13.37;11.97;;;;;;;;;;735453;189;684016;-94
2022/08/01 06:23:54;;;;;;;14.50;13.10;;;;;;;;;;731056;187;623964;-92
2022/08/01 06:26:20;;;;;;;16.07;10.70;;;;;;;;;;736453;190;646207;-91
2022/08/01 06:28:46;;;;;;;18.23;9.37;;;;;;;;;;749905;184;692251;-92
2022/08/01 06:31:13;;;;;;;10.67;9.57;;;;;;;;;;750152;186;638364;-92
2022/08/01 06:33:38;;;;;;;8.57;7.33;;;;;;;;;;751720;187;663288;-93
2022/08/01 06:36:04;;;;;;;7.67;6.87;;;;;;;;;;749995;187;633954;-91
2022/08/01 06:38:30;;;;;;;8.30;7.33;;;;;;;;;;749481;186;680517;-90
2022/08/01 06:40:55;;;;;;;8.10;6.50;;;;;;;;;;752723;186;627327;-91
2022/08/01 06:43:21;;;;;;;7.10;6.40;;;;;;;;;;750340;186;683806;-90
2022/08/01 06:45:47;;;;;;;6.43;5.73;;;;;;;;;;754962;186;638107;-89
2022/08/01 06:48:13;;;;;;;6.93;6.23;;;;;;;;;;754488;183;644107;-91
2022/08/01 06:50:40;;;;;;;8.83;5.20;;;;;;;;;;755827;186;696446;-91
2022/08/01 06:53:06;;;;;;;6.13;5.50;;;;;;;;;;751316;186;617491;-91
2022/08/01 06:55:31;;;;;;;9.70;6.10;;;;;;;;;;748996;187;670590;-90
2022/08/01 06:57:58;;;;;;;7.30;5.70;;;;;;;;;;752459;182;622861;-91
2022/08/01 07:00:24;;;;;;;7.03;5.12;;;;;;;;;;743255;187;1433955;-89
2022/08/01 07:02:49;;;;;;;7.33;5.77;;;;;;;;;;751625;186;628428;-89
2022/08/01 07:05:15;;;;;;;6.10;5.47;;;;;;;;;;746646;189;624238;-89
2022/08/01 07:07:41;;;;;;;6.40;5.50;;;;;;;;;;738960;190;652092;-90
2022/08/01 07:10:08;;;;;;;8.07;5.67;;;;;;;;;;751203;184;665549;-89
2022/08/01 07:12:33;;;;;;;9.30;5.80;;;;;;;;;;752226;186;817870;-88
2022/08/01 07:14:59;;;;;;;6.67;5.67;;;;;;;;;;756690;186;652316;-92
2022/08/01 07:17:25;;;;;;;6.47;5.77;;;;;;;;;;750156;187;650676;-90
2022/08/01 07:19:51;;;;;;;6.23;5.63;;;;;;;;;;752384;186;624906;-89
2022/08/01 07:22:17;;;;;;;9.70;6.20;;;;;;;;;;752616;186;657175;-89
2022/08/01 07:24:42;;;;;;;6.50;5.90;;;;;;;;;;754079;186;622423;-88
2022/08/01 07:27:08;;;;;;;7.97;7.20;;;;;;;;;;747519;186;638125;-88
2022/08/01 07:29:34;;;;;;;8.60;7.80;;;;;;;;;;745209;189;633943;-88
2022/08/01 07:32:00;;;;;;;8.93;7.20;;;;;;;;;;736657;189;628992;-88
2022/08/01 07:34:26;;;;;;;7.67;6.70;;;;;;;;;;756044;186;621412;-89
2022/08/01 07:36:52;;;;;;;7.20;6.50;;;;;;;;;;750741;183;662423;-57
2022/08/01 07:39:18;;;;;;;9.13;6.10;;;;;;;;;;758311;186;630632;-58
2022/08/01 07:41:43;;;;;;;7.80;6.83;;;;;;;;;;756396;187;627232;-57
2022/08/01 07:44:09;;;;;;;6.80;6.10;;;;;;;;;;753219;186;638395;-58
2022/08/01 07:46:35;;;;;;;6.70;6.00;;;;;;;;;;760373;186;637211;-57
2022/08/01 07:49:01;;;;;;;8.03;6.70;;;;;;;;;;755593;186;628442;-57
2022/08/01 07:51:27;;;;;;;14.73;7.53;;;;;;;;;;755073;187;623797;-58
2022/08/01 07:53:53;;;;;;;8.40;5.90;;;;;;;;;;758846;187;635815;-57
2022/08/01 07:56:18;;;;;;;6.63;6.03;;;;;;;;;;756252;186;626453;-57
2022/08/01 07:58:46;;;;;;;12.50;6.90;;;;;;;;;;755670;186;621593;-57
2022/08/01 08:01:10;;;;;;;10.10;5.47;;;;;;;;;;760591;186;639496;-57
2022/08/01 08:03:36;;;;;;;10.73;6.33;;;;;;;;;;756029;186;622600;-58
2022/08/01 08:06:02;;;;;;;7.50;6.80;;;;;;;;;;755636;186;624289;-57
2022/08/01 08:08:28;;;;;;;11.20;7.40;;;;;;;;;;756270;186;620256;-57
2022/08/01 08:10:54;;;;;;;7.90;7.10;;;;;;;;;;761020;186;633270;-58
2022/08/01 08:13:19;;;;;;;10.40;7.27;;;;;;;;;;751801;184;638320;-58
2022/08/01 08:15:45;;;;;;;11.23;6.97;;;;;;;;;;754723;186;636248;-58
2022/08/01 08:18:11;;;;;;;10.30;7.13;;;;;;;;;;762231;186;622305;-57
2022/08/01 08:20:37;;;;;;;6.97;6.20;;;;;;;;;;757726;186;624324;-58
2022/08/01 08:24:19;;;;;;;7.47;6.70;;;;;;;;;;755210;186;638183;-58
2022/08/01 08:25:29;;;;;;;10.07;7.50;;;;;;;;;;758117;186;620388;-57
2022/08/01 08:27:55;;;;;;;9.87;8.00;;;;;;;;;;755985;186;624524;-58
2022/08/01 08:30:20;;;;;;;12.97;8.07;;;;;;;;;;755650;186;625723;-58
2022/08/01 08:32:47;;;;;;;10.90;7.67;;;;;;;;;;757387;186;626019;-57
2022/08/01 08:35:12;;;;;;;9.17;8.27;;;;;;;;;;759763;186;619512;-57
2022/08/01 08:37:38;;;;;;;7.87;7.17;;;;;;;;;;756540;186;624611;-58
2022/08/01 08:40:04;;;;;;;12.00;6.80;;;;;;;;;;754567;186;615572;-57
2022/08/01 08:42:30;;;;;;;8.83;6.93;;;;;;;;;;759216;186;642084;-58
2022/08/01 08:44:56;;;;;;;7.77;6.90;;;;;;;;;;757636;186;621366;-58
2022/08/01 08:47:22;;;;;;;9.90;7.93;;;;;;;;;;756616;186;617561;-57
2022/08/01 08:49:48;;;;;;;8.07;7.07;;;;;;;;;;759984;186;618895;-58
2022/08/01 08:52:13;;;;;;;7.60;6.20;;;;;;;;;;756578;186;623840;-57
2022/08/01 08:54:39;;;;;;;9.70;7.50;;;;;;;;;;755760;186;623022;-58
2022/08/01 08:57:05;;;;;;;11.10;7.03;;;;;;;;;;756470;186;626914;-59
2022/08/01 08:59:31;;;;;;;7.57;6.77;;;;;;;;;;763684;184;643358;-57
2022/08/01 09:01:57;;;;;;;13.50;7.40;;;;;;;;;;756845;186;630243;-58
2022/08/01 09:04:23;;;;;;;8.10;7.30;;;;;;;;;;755381;186;619386;-58
2022/08/01 09:06:48;;;;;;;8.10;7.30;;;;;;;;;;759924;186;633384;-56
2022/08/01 09:09:14;;;;;;;8.00;6.60;;;;;;;;;;755673;186;634040;-56
2022/08/01 09:11:40;;;;;;;7.90;7.10;;;;;;;;;;756208;186;628516;-58
2022/08/01 09:14:08;;;;;;;9.70;6.60;;;;;;;;;;760038;186;619258;-57
2022/08/01 09:16:34;;;;;;;13.20;7.40;;;;;;;;;;756314;186;620416;-57
2022/08/01 09:19:05;;;;;;;9.30;7.63;;;;;;;;;;755757;184;627598;-57
2022/08/01 09:21:31;;;;;;;9.83;7.13;;;;;;;;;;753536;186;640444;-58
2022/08/01 09:23:58;;;;;;;10.00;7.23;;;;;;;;;;759327;186;629243;-57
2022/08/01 09:26:28;;;;;;;9.20;7.03;;;;;;;;;;754395;186;673052;-57
2022/08/01 09:28:53;;;;;;;9.90;6.93;;;;;;;;;;758468;185;616687;-56
2022/08/01 09:31:19;;;;;;;10.00;7.47;;;;;;;;;;758642;186;625554;-57
2022/08/01 09:33:55;;;;;;;7.83;7.00;;;;;;;;;;757444;186;633460;-58
2022/08/01 09:36:21;;;;;;;9.00;6.13;;;;;;;;;;755723;186;632491;-57
2022/08/01 09:38:46;;;;;;;9.17;6.20;;;;;;;;;;757076;186;621362;-57
2022/08/01 09:41:12;;;;;;;8.10;6.53;;;;;;;;;;760723;186;634319;-58
2022/08/01 09:43:38;;;;;;;6.90;6.20;;;;;;;;;;757563;184;619701;-57
2022/08/01 09:46:04;;;;;;;7.73;6.60;;;;;;;;;;755914;186;651076;-56
2022/08/01 09:48:32;;;;;;;11.63;7.47;;;;;;;;;;755660;186;623705;-57
2022/08/01 09:50:56;;;;;;;9.97;6.73;;;;;;;;;;759494;186;626553;-56
2022/08/01 09:53:21;;;;;;;13.73;6.43;;;;;;;;;;755320;186;624277;-56
2022/08/01 09:55:50;;;;;;;7.47;6.70;;;;;;;;;;757769;186;616608;-57
2022/08/01 09:58:13;;;;;;;8.17;7.37;;;;;;;;;;760296;186;623068;-56
2022/08/01 10:00:39;;;;;;;8.10;7.23;;;;;;;;;;758398;186;618366;-56
2022/08/01 10:03:11;;;;;;;10.23;6.67;;;;;;;;;;754005;187;631226;-57
2022/08/01 10:05:36;;;;;;;8.70;7.80;;;;;;;;;;756411;186;618638;-57
2022/08/01 10:08:03;;;;;;;7.60;6.70;;;;;;;;;;759900;186;652042;-56
2022/08/01 10:10:28;;;;;;;8.13;7.33;;;;;;;;;;756788;186;638173;-57
2022/08/01 10:12:54;;;;;;;11.55;5.95;;;;;;;;;;755652;183;630942;-57
2022/08/01 10:15:20;;;;;;;9.07;7.00;;;;;;;;;;759037;186;635619;-58
2022/08/01 10:17:46;;;;;;;10.27;6.43;;;;;;;;;;755627;187;616551;-57
2022/08/01 10:20:12;;;;;;;8.03;6.47;;;;;;;;;;755980;186;620370;-59
2022/08/01 10:22:37;;;;;;;7.03;5.67;;;;;;;;;;756885;186;629548;-57
2022/08/01 10:25:03;;;;;;;8.00;6.63;;;;;;;;;;754184;187;633162;-57
2022/08/01 10:27:29;;;;;;;6.70;6.10;;;;;;;;;;754704;186;631131;-57
2022/08/01 10:29:56;;;;;;;6.90;6.10;;;;;;;;;;756128;187;627944;-56
2022/08/01 10:32:21;;;;;;;6.00;5.50;;;;;;;;;;758513;184;641173;-56
2022/08/01 10:34:47;;;;;;;8.67;6.60;;;;;;;;;;754926;186;616873;-57
2022/08/01 10:37:13;;;;;;;7.10;6.40;;;;;;;;;;754815;187;637685;-56
2022/08/01 10:39:39;;;;;;;6.83;6.03;;;;;;;;;;761220;185;622730;-56
2022/08/01 10:42:05;;;;;;;8.53;5.93;;;;;;;;;;756677;186;631921;-57
2022/08/01 10:44:30;;;;;;;7.83;6.57;;;;;;;;;;757693;186;641682;-57
2022/08/01 10:47:06;;;;;;;7.00;6.07;;;;;;;;;;761846;186;626588;-56
2022/08/01 10:49:32;;;;;;;5.93;5.33;;;;;;;;;;759670;186;618789;-56
2022/08/01 10:51:58;;;;;;;6.73;4.90;;;;;;;;;;755498;186;632484;-56
2022/08/01 10:54:24;;;;;;;6.40;5.30;;;;;;;;;;756348;185;625672;-57
2022/08/01 10:56:50;;;;;;;5.27;4.73;;;;;;;;;;761670;186;632998;-58
2022/08/01 10:59:25;;;;;;;7.63;5.60;;;;;;;;;;754584;186;627451;-57
2022/08/01 11:02:01;;;;;;;7.70;4.97;;;;;;;;;;753778;186;627199;-57
2022/08/01 11:04:32;;;;;;;6.70;4.47;;;;;;;;;;755434;186;622287;-57
2022/08/01 11:07:04;;;;;;;6.70;5.10;;;;;;;;;;755729;186;617377;-57
2022/08/01 11:09:29;;;;;;;5.20;4.70;;;;;;;;;;761041;186;617233;-56
2022/08/01 11:11:57;;;;;;;7.60;4.37;;;;;;;;;;756207;186;629453;-56
2022/08/01 11:14:23;;;;;;;5.50;5.00;;;;;;;;;;756529;186;626608;-57
2022/08/01 11:16:49;;;;;;;5.60;5.10;;;;;;;;;;755931;186;632249;-56
2022/08/01 11:19:15;;;;;;;6.63;5.17;;;;;;;;;;758464;187;630097;-57
2022/08/01 11:21:56;;;;;;;6.17;5.43;;;;;;;;;;755248;187;626078;-55
2022/08/01 11:24:27;;;;;;;11.47;5.33;;;;;;;;;;753871;183;614402;-55
2022/08/01 11:26:59;;;;;;;8.80;5.47;;;;;;;;;;755089;186;629132;-56
2022/08/01 11:29:25;;;;;;;5.10;4.60;;;;;;;;;;756777;186;627210;-57
2022/08/01 11:31:51;;;;;;;9.10;5.60;;;;;;;;;;760204;187;625291;-55
2022/08/01 11:34:16;;;;;;;6.90;5.70;;;;;;;;;;753767;187;631671;-56
2022/08/01 11:36:42;;;;;;;7.80;5.10;;;;;;;;;;755159;186;627871;-55
2022/08/01 11:39:11;;;;;;;7.23;5.20;;;;;;;;;;759750;186;637309;-57
2022/08/01 11:41:37;;;;;;;6.27;5.27;;;;;;;;;;756244;186;633242;-56
2022/08/01 11:44:03;;;;;;;5.40;4.90;;;;;;;;;;754986;186;625350;-56
2022/08/01 11:46:34;;;;;;;5.60;5.10;;;;;;;;;;760471;186;632394;-56
2022/08/01 11:49:06;;;;;;;8.30;4.53;;;;;;;;;;760390;186;619587;-55
2022/08/01 11:51:32;;;;;;;5.10;4.60;;;;;;;;;;758231;184;622716;-55
2022/08/01 11:53:58;;;;;;;5.87;5.23;;;;;;;;;;757908;184;630839;-55
2022/08/01 11:56:23;;;;;;;7.63;6.37;;;;;;;;;;760494;186;617504;-55
2022/08/01 11:58:50;;;;;;;5.50;4.60;;;;;;;;;;757812;186;625724;-56
2022/08/01 12:01:15;;;;;;;7.07;6.37;;;;;;;;;;756908;186;627537;-55
2022/08/01 12:03:41;;;;;;;5.87;5.27;;;;;;;;;;757098;186;623385;-56
2022/08/01 12:06:07;;;;;;;8.83;5.50;;;;;;;;;;760769;186;624971;-55
2022/08/01 12:08:34;;;;;;;6.53;5.03;;;;;;;;;;756534;186;624335;-56
2022/08/01 12:10:59;;;;;;;10.03;5.00;;;;;;;;;;757676;186;628076;-55
2022/08/01 12:13:24;;;;;;;9.17;4.90;;;;;;;;;;759851;186;624944;-55
2022/08/01 12:15:50;;;;;;;7.83;5.90;;;;;;;;;;756978;186;627471;-55
2022/08/01 12:18:16;;;;;;;5.13;4.63;;;;;;;;;;754039;186;628021;-55
2022/08/01 12:20:43;;;;;;;10.50;5.73;;;;;;;;;;760992;186;636208;-55
2022/08/01 12:23:08;;;;;;;8.60;5.80;;;;;;;;;;755408;186;633907;-55
2022/08/01 12:25:34;;;;;;;8.27;6.37;;;;;;;;;;756348;186;637471;-55
2022/08/01 12:28:01;;;;;;;18.40;5.20;;;;;;;;;;755176;186;631612;-57
2022/08/01 12:30:26;;;;;;;5.30;4.80;;;;;;;;;;759462;186;618397;-55
2022/08/01 12:32:52;;;;;;;9.07;5.33;;;;;;;;;;754488;186;626664;-56
2022/08/01 12:35:19;;;;;;;5.63;4.93;;;;;;;;;;755150;186;635252;-55
2022/08/01 12:37:44;;;;;;;6.33;4.90;;;;;;;;;;758901;187;617489;-56
2022/08/01 12:40:13;;;;;;;9.87;5.07;;;;;;;;;;756028;186;635494;-57
2022/08/01 12:42:40;;;;;;;8.73;5.87;;;;;;;;;;752828;186;636979;-55
2022/08/01 12:45:06;;;;;;;7.93;5.67;;;;;;;;;;754659;186;631939;-55
2022/08/01 12:47:32;;;;;;;6.30;5.70;;;;;;;;;;760451;184;616445;-55
2022/08/01 12:49:58;;;;;;;8.50;5.20;;;;;;;;;;755708;186;719269;-56
2022/08/01 12:52:24;;;;;;;6.67;4.87;;;;;;;;;;755240;186;624464;-55
2022/08/01 12:54:55;;;;;;;7.83;6.33;;;;;;;;;;758638;187;632441;-54
2022/08/01 12:57:22;;;;;;;8.50;5.50;;;;;;;;;;756121;186;631489;-54
2022/08/01 12:59:48;;;;;;;6.40;4.90;;;;;;;;;;754560;187;627881;-54
2022/08/01 13:02:14;;;;;;;5.67;4.67;;;;;;;;;;755616;185;619061;-55
2022/08/01 13:04:45;;;;;;;6.73;5.07;;;;;;;;;;760912;184;628323;-54
2022/08/01 13:07:11;;;;;;;8.80;6.07;;;;;;;;;;756118;186;638530;-54
2022/08/01 13:09:37;;;;;;;9.73;5.40;;;;;;;;;;757832;186;635200;-53
2022/08/01 13:12:03;;;;;;;8.93;5.30;;;;;;;;;;760254;186;617497;-54
2022/08/01 13:14:29;;;;;;;5.63;5.00;;;;;;;;;;755507;186;625248;-53
2022/08/01 13:16:55;;;;;;;6.90;4.93;;;;;;;;;;756555;186;618548;-55
2022/08/01 13:19:20;;;;;;;6.13;5.53;;;;;;;;;;756882;186;625060;-53
2022/08/01 13:21:52;;;;;;;13.00;5.77;;;;;;;;;;756775;186;627446;-53
2022/08/01 13:24:18;;;;;;;8.00;5.90;;;;;;;;;;756427;186;630418;-53
2022/08/01 13:26:44;;;;;;;10.47;5.50;;;;;;;;;;755991;186;630529;-54
2022/08/01 13:29:10;;;;;;;11.23;6.20;;;;;;;;;;759781;184;642755;-55
2022/08/01 13:31:36;;;;;;;11.77;5.97;;;;;;;;;;754955;186;627494;-53
2022/08/01 13:34:02;;;;;;;8.23;5.67;;;;;;;;;;756790;186;625574;-56
2022/08/01 13:36:28;;;;;;;6.70;5.77;;;;;;;;;;755551;186;631295;-55
2022/08/01 13:41:25;;;;;;;11.43;5.20;;;;;;;;;;754824;186;631812;-55
2022/08/01 13:43:51;;;;;;;7.20;5.80;;;;;;;;;;755249;186;624741;-54
2022/08/01 13:46:17;;;;;;;6.13;4.93;;;;;;;;;;759908;186;625514;-54
2022/08/01 13:48:43;;;;;;;8.83;5.80;;;;;;;;;;755527;186;618876;-54
2022/08/01 13:51:09;;;;;;;8.63;6.00;;;;;;;;;;755403;186;631169;-53
2022/08/01 13:53:35;;;;;;;5.87;5.27;;;;;;;;;;756323;186;626848;-55
2022/08/01 13:56:00;;;;;;;6.93;4.73;;;;;;;;;;757718;184;629105;-55
2022/08/01 13:58:28;;;;;;;5.87;5.27;;;;;;;;;;754835;186;695440;-54
2022/08/01 14:00:52;;;;;;;6.53;5.20;;;;;;;;;;755532;186;628423;-53
2022/08/01 14:03:18;;;;;;;9.13;8.23;;;;;;;;;;758615;187;636857;-55
2022/08/01 14:05:44;;;;;;;5.73;5.20;;;;;;;;;;754978;186;628225;-54
2022/08/01 14:08:10;;;;;;;7.50;6.70;;;;;;;;;;755554;186;666392;-54
2022/08/01 14:10:36;;;;;;;5.50;5.00;;;;;;;;;;758804;186;789858;-55
2022/08/01 14:13:01;;;;;;;8.10;5.30;;;;;;;;;;755592;186;629475;-54
2022/08/01 14:15:27;;;;;;;6.50;5.50;;;;;;;;;;756220;185;1024162;-55
2022/08/01 14:17:54;;;;;;;5.70;4.90;;;;;;;;;;758106;186;616978;-56
2022/08/01 14:20:19;;;;;;;5.50;4.70;;;;;;;;;;758837;184;629163;-55
2022/08/01 14:22:45;;;;;;;9.70;5.30;;;;;;;;;;754686;186;778818;-55
2022/08/01 14:25:11;;;;;;;8.70;5.67;;;;;;;;;;756823;186;627680;-56